Time;durP1;ratioP1;P1;durP2;ratioP2;P2;SDS_P1;SDS_P2;PMS_P1;PMS_P2;Temp;Humidity;BMP_temperature;BMP_pressure;BME280_temperature;BME280_humidity;BME280_pressure;Samples;Min_cycle;Max_cycle;Signal;HPM_P1;HPM_P2
2022/01/07 00:01:54;;;;;;;;;;;0.40;99.90;;;;;;5094181;28;19955;-49
2022/01/07 00:04:19;;;;;;;;;;;0.40;99.90;;;;;;5094305;28;19915;-47
2022/01/07 00:06:45;;;;;;;;;;;0.30;99.90;;;;;;5094334;28;19940;-49
2022/01/07 00:09:10;;;;;;;;;;;0.40;99.90;;;;;;5094548;28;20371;-46
2022/01/07 00:11:36;;;;;;;;;;;0.30;99.90;;;;;;5094286;28;20018;-47
2022/01/07 00:14:02;;;;;;;;;;;0.30;99.90;;;;;;5094149;28;19951;-47
2022/01/07 00:16:27;;;;;;;;;;;0.30;99.90;;;;;;5094116;28;19912;-46
2022/01/07 00:18:53;;;;;;;;;;;0.20;99.90;;;;;;5093834;28;19908;-49
2022/01/07 00:21:18;;;;;;;;;;;0.10;99.90;;;;;;5093937;28;19920;-48
2022/01/07 00:23:44;;;;;;;;;;;0.20;99.90;;;;;;5093775;28;19931;-50
2022/01/07 00:26:09;;;;;;;;;;;0.10;99.90;;;;;;5075963;28;19908;-51
2022/01/07 00:28:35;;;;;;;;;;;0.10;99.90;;;;;;5093803;28;20282;-49
2022/01/07 00:31:00;;;;;;;;;;;0.10;99.90;;;;;;5093877;28;19920;-49
2022/01/07 00:33:26;;;;;;;;;;;0.10;99.90;;;;;;5093719;28;19947;-47
2022/01/07 00:35:52;;;;;;;;;;;0.00;99.90;;;;;;5093724;28;20425;-47
2022/01/07 00:38:18;;;;;;;;;;;0.00;99.90;;;;;;5093966;28;20007;-46
2022/01/07 00:40:43;;;;;;;;;;;-0.10;99.90;;;;;;5093748;28;19956;-49
2022/01/07 00:43:09;;;;;;;;;;;-0.10;99.90;;;;;;5093824;28;20304;-47
2022/01/07 00:45:34;;;;;;;;;;;-0.20;99.90;;;;;;5093661;28;19908;-47
2022/01/07 00:48:00;;;;;;;;;;;-0.20;99.90;;;;;;5093607;28;19912;-48
2022/01/07 00:50:27;;;;;;;;;;;-0.30;99.90;;;;;;5093838;28;19908;-49
2022/01/07 00:52:52;;;;;;;;;;;-0.40;99.90;;;;;;5076105;28;19908;-46
2022/01/07 00:55:18;;;;;;;;;;;-0.30;99.90;;;;;;5093783;28;19908;-46
2022/01/07 00:57:44;;;;;;;;;;;-0.40;99.90;;;;;;5093838;28;19919;-45
2022/01/07 01:00:11;;;;;;;;;;;-0.30;99.90;;;;;;5075794;28;19918;-47
2022/01/07 01:02:37;;;;;;;;;;;-0.30;99.90;;;;;;5093712;28;19920;-45
2022/01/07 01:05:04;;;;;;;;;;;-0.30;99.90;;;;;;5093333;28;19908;-49
2022/01/07 01:07:29;;;;;;;;;;;-0.30;99.90;;;;;;5093757;28;19939;-46
2022/01/07 01:09:55;;;;;;;;;;;-0.30;99.90;;;;;;5075578;28;20268;-47
2022/01/07 01:12:20;;;;;;;;;;;-0.30;99.90;;;;;;5097146;28;19908;-46
2022/01/07 01:14:46;;;;;;;;;;;-0.40;99.90;;;;;;5079423;28;19973;-47
2022/01/07 01:17:11;;;;;;;;;;;-0.40;99.90;;;;;;5097230;28;19915;-46
2022/01/07 01:19:37;;;;;;;;;;;-0.40;99.90;;;;;;5097414;28;19973;-46
2022/01/07 01:22:03;;;;;;;;;;;-0.40;99.90;;;;;;5078953;28;20379;-47
2022/01/07 01:24:29;;;;;;;;;;;-0.40;99.90;;;;;;5097149;28;19970;-49
2022/01/07 01:26:55;;;;;;;;;;;-0.40;99.90;;;;;;5097071;28;19908;-45
2022/01/07 01:29:22;;;;;;;;;;;-0.30;99.90;;;;;;5097258;28;19922;-49
2022/01/07 01:31:48;;;;;;;;;;;-0.40;99.90;;;;;;5097363;28;20251;-45
2022/01/07 01:34:13;;;;;;;;;;;-0.40;99.90;;;;;;5097180;28;19915;-46
2022/01/07 01:36:39;;;;;;;;;;;-0.50;99.90;;;;;;5096687;28;19908;-46
2022/01/07 01:39:05;;;;;;;;;;;-0.40;99.90;;;;;;5097000;28;20007;-46
2022/01/07 01:41:31;;;;;;;;;;;-0.40;99.90;;;;;;5096830;28;19916;-51
2022/01/07 01:43:56;;;;;;;;;;;-0.40;99.90;;;;;;5096873;28;19912;-50
2022/01/07 01:46:22;;;;;;;;;;;-0.50;99.90;;;;;;5096591;28;19962;-48
2022/01/07 01:48:47;;;;;;;;;;;-0.50;99.90;;;;;;5097119;28;20389;-46
2022/01/07 01:51:13;;;;;;;;;;;-0.50;99.90;;;;;;5096838;28;20000;-46
2022/01/07 01:53:39;;;;;;;;;;;-0.50;99.90;;;;;;5096530;28;19908;-47
2022/01/07 01:56:05;;;;;;;;;;;-0.50;99.90;;;;;;5096535;28;19908;-47
2022/01/07 01:58:30;;;;;;;;;;;-0.50;99.90;;;;;;5096798;28;20404;-46
2022/01/07 02:00:56;;;;;;;;;;;-0.50;99.90;;;;;;5096336;28;20300;-50
2022/01/07 02:03:22;;;;;;;;;;;-0.60;99.90;;;;;;5096731;28;19935;-48
2022/01/07 02:05:47;;;;;;;;;;;-0.60;99.90;;;;;;5096645;28;20269;-46
2022/01/07 02:08:13;;;;;;;;;;;-0.60;99.90;;;;;;5096651;28;20010;-46
2022/01/07 02:10:39;;;;;;;;;;;-0.70;99.90;;;;;;5096588;28;19908;-46
2022/01/07 02:13:04;;;;;;;;;;;-0.70;99.90;;;;;;5096222;28;19908;-45
2022/01/07 02:15:30;;;;;;;;;;;-0.70;99.90;;;;;;5096496;28;19908;-49
2022/01/07 02:17:57;;;;;;;;;;;-0.70;99.90;;;;;;5096204;28;19915;-46
2022/01/07 02:20:25;;;;;;;;;;;-0.70;99.90;;;;;;5095961;28;19915;-54
2022/01/07 02:22:51;;;;;;;;;;;-0.70;99.90;;;;;;5095054;28;19947;-48
2022/01/07 02:25:17;;;;;;;;;;;-0.70;99.90;;;;;;5096205;28;20315;-46
2022/01/07 02:27:43;;;;;;;;;;;-0.70;99.90;;;;;;5095879;28;19908;-45
2022/01/07 02:30:10;;;;;;;;;;;-0.70;99.90;;;;;;5095807;28;20262;-48
2022/01/07 02:32:36;;;;;;;;;;;-0.70;99.90;;;;;;5095834;28;19995;-47
2022/01/07 02:35:02;;;;;;;;;;;-0.80;99.90;;;;;;5095750;28;19950;-47
2022/01/07 02:37:28;;;;;;;;;;;-0.80;99.90;;;;;;5096311;28;19962;-49
2022/01/07 02:39:54;;;;;;;;;;;-0.90;99.90;;;;;;5095587;28;19931;-46
2022/01/07 02:42:19;;;;;;;;;;;-0.90;99.90;;;;;;5095921;28;19916;-47
2022/01/07 02:44:45;;;;;;;;;;;-1.00;99.90;;;;;;5095868;28;19973;-46
2022/01/07 02:47:10;;;;;;;;;;;-0.90;99.90;;;;;;5095468;28;19908;-47
2022/01/07 02:49:36;;;;;;;;;;;-0.90;99.90;;;;;;5095503;28;19909;-48
2022/01/07 02:52:02;;;;;;;;;;;-0.90;99.90;;;;;;5095714;28;20358;-46
2022/01/07 02:54:27;;;;;;;;;;;-1.00;99.90;;;;;;5077507;28;19908;-48
2022/01/07 02:56:53;;;;;;;;;;;-0.90;99.90;;;;;;5095329;28;19919;-48
2022/01/07 02:59:19;;;;;;;;;;;-0.90;99.90;;;;;;5095624;28;19908;-47
2022/01/07 03:01:44;;;;;;;;;;;-0.90;99.90;;;;;;5095402;28;19920;-48
2022/01/07 03:04:10;;;;;;;;;;;-0.90;99.90;;;;;;5095782;28;19914;-46
2022/01/07 03:06:36;;;;;;;;;;;-0.90;99.90;;;;;;5095482;28;19912;-46
2022/01/07 03:09:02;;;;;;;;;;;-0.80;99.90;;;;;;5095426;28;20334;-47
2022/01/07 03:11:28;;;;;;;;;;;-0.80;99.90;;;;;;5095444;28;20377;-51
2022/01/07 03:13:53;;;;;;;;;;;-0.80;99.90;;;;;;5095297;28;19912;-50
2022/01/07 03:16:19;;;;;;;;;;;-0.90;99.90;;;;;;5095180;28;20014;-47
2022/01/07 03:18:44;;;;;;;;;;;-0.80;99.90;;;;;;5095227;28;20365;-50
2022/01/07 03:21:10;;;;;;;;;;;-0.80;99.90;;;;;;5095013;28;19912;-46
2022/01/07 03:23:37;;;;;;;;;;;-0.80;99.90;;;;;;5095466;28;19923;-49
2022/01/07 03:26:03;;;;;;;;;;;-0.80;99.90;;;;;;5095058;28;19919;-48
2022/01/07 03:28:29;;;;;;;;;;;-0.80;99.90;;;;;;5076822;28;19908;-47
2022/01/07 03:30:54;;;;;;;;;;;-0.90;99.90;;;;;;5095173;28;19920;-49
2022/01/07 03:33:20;;;;;;;;;;;-0.90;99.90;;;;;;5094661;28;19930;-49
2022/01/07 03:35:45;;;;;;;;;;;-0.90;99.90;;;;;;5094759;28;19915;-47
2022/01/07 03:38:11;;;;;;;;;;;-0.90;99.90;;;;;;5076539;28;19918;-46
2022/01/07 03:40:37;;;;;;;;;;;-0.90;99.90;;;;;;5094777;28;20003;-46
2022/01/07 03:43:03;;;;;;;;;;;-1.00;99.90;;;;;;5094773;28;20251;-48
2022/01/07 03:45:28;;;;;;;;;;;-1.00;99.90;;;;;;5094707;28;19915;-46
2022/01/07 03:47:54;;;;;;;;;;;-1.00;99.90;;;;;;5094696;28;19912;-48
2022/01/07 03:50:21;;;;;;;;;;;-1.10;99.90;;;;;;5076407;28;20246;-48
2022/01/07 03:52:48;;;;;;;;;;;-1.00;99.90;;;;;;5094639;28;19915;-49
2022/01/07 03:55:15;;;;;;;;;;;-1.20;99.90;;;;;;5094540;28;19908;-48
2022/01/07 03:57:41;;;;;;;;;;;-1.30;99.90;;;;;;5094947;28;19909;-45
2022/01/07 04:00:08;;;;;;;;;;;-1.20;99.90;;;;;;5094144;28;19919;-46
2022/01/07 04:02:34;;;;;;;;;;;-1.10;99.90;;;;;;5094443;28;20297;-47
2022/01/07 04:04:59;;;;;;;;;;;-1.20;99.90;;;;;;5094498;28;20392;-47
2022/01/07 04:07:25;;;;;;;;;;;-1.10;99.90;;;;;;5094375;28;20346;-51
2022/01/07 04:09:50;;;;;;;;;;;-1.30;99.90;;;;;;5094299;28;19955;-51
2022/01/07 04:12:16;;;;;;;;;;;-1.10;99.90;;;;;;5093848;28;20358;-50
2022/01/07 04:14:41;;;;;;;;;;;-1.10;99.90;;;;;;5094401;28;19908;-48
2022/01/07 04:17:07;;;;;;;;;;;-1.20;99.90;;;;;;5094127;28;19912;-48
2022/01/07 04:19:33;;;;;;;;;;;-1.20;99.90;;;;;;5093746;28;20357;-46
2022/01/07 04:21:59;;;;;;;;;;;-1.20;99.90;;;;;;5093810;28;19959;-49
2022/01/07 04:24:24;;;;;;;;;;;-1.20;99.90;;;;;;5094041;28;20251;-49
2022/01/07 04:26:50;;;;;;;;;;;-1.20;99.90;;;;;;5093719;28;20263;-47
2022/01/07 04:29:15;;;;;;;;;;;-1.30;99.90;;;;;;5075936;28;19915;-49
2022/01/07 04:31:41;;;;;;;;;;;-1.40;99.90;;;;;;5093572;28;20268;-46
2022/01/07 04:34:06;;;;;;;;;;;-1.30;99.90;;;;;;5093962;28;20372;-49
2022/01/07 04:36:32;;;;;;;;;;;-1.30;99.90;;;;;;5093981;28;20286;-49
2022/01/07 04:38:57;;;;;;;;;;;-1.40;99.90;;;;;;5093926;28;19996;-46
2022/01/07 04:41:23;;;;;;;;;;;-1.30;99.90;;;;;;5093828;28;19912;-45
2022/01/07 04:43:48;;;;;;;;;;;-1.40;99.90;;;;;;5093953;28;19919;-47
2022/01/07 04:46:14;;;;;;;;;;;-1.40;99.90;;;;;;5095439;28;19918;-50
2022/01/07 04:48:39;;;;;;;;;;;-1.40;99.90;;;;;;5097731;28;19908;-46
2022/01/07 04:51:05;;;;;;;;;;;-1.40;99.90;;;;;;5097707;28;19995;-47
2022/01/07 04:53:30;;;;;;;;;;;-1.40;99.90;;;;;;5097971;28;19947;-47
2022/01/07 04:55:58;;;;;;;;;;;-1.40;99.90;;;;;;5097574;28;20413;-46
2022/01/07 04:58:24;;;;;;;;;;;-1.50;99.90;;;;;;5079731;28;19961;-46
2022/01/07 05:00:50;;;;;;;;;;;-1.40;99.90;;;;;;5097787;28;19916;-44
2022/01/07 05:03:15;;;;;;;;;;;-1.40;99.90;;;;;;5097797;28;19912;-45
2022/01/07 05:05:45;;;;;;;;;;;-1.40;99.90;;;;;;5093271;28;19957;-47
2022/01/07 05:08:10;;;;;;;;;;;-1.40;99.90;;;;;;5080558;28;19920;-47
2022/01/07 05:10:37;;;;;;;;;;;-1.40;99.90;;;;;;5080849;28;19919;-47
2022/01/07 05:13:03;;;;;;;;;;;-1.40;99.90;;;;;;5097288;28;19908;-45
2022/01/07 05:15:28;;;;;;;;;;;-1.50;99.90;;;;;;5097217;28;19916;-45
2022/01/07 05:17:54;;;;;;;;;;;-1.50;99.90;;;;;;5097074;28;19912;-46
2022/01/07 05:20:19;;;;;;;;;;;-1.50;99.90;;;;;;5097403;28;19919;-45
2022/01/07 05:22:45;;;;;;;;;;;-1.50;99.90;;;;;;5089866;28;19950;-48
2022/01/07 05:25:12;;;;;;;;;;;-1.40;99.90;;;;;;5088659;28;19912;-46
2022/01/07 05:27:37;;;;;;;;;;;-1.40;99.90;;;;;;5095201;28;19912;-45
2022/01/07 05:30:04;;;;;;;;;;;-1.50;99.90;;;;;;5089689;28;19974;-45
2022/01/07 05:32:30;;;;;;;;;;;-1.50;99.90;;;;;;5097206;28;19999;-47
2022/01/07 05:34:55;;;;;;;;;;;-1.60;99.90;;;;;;5093382;28;19954;-50
2022/01/07 05:37:21;;;;;;;;;;;-1.60;99.90;;;;;;5092436;28;20362;-48
2022/01/07 05:39:46;;;;;;;;;;;-1.50;99.90;;;;;;5077724;28;20255;-50
2022/01/07 05:42:12;;;;;;;;;;;-1.50;99.90;;;;;;5089974;28;20437;-48
2022/01/07 05:44:37;;;;;;;;;;;-1.50;99.90;;;;;;5096940;28;19943;-47
2022/01/07 05:47:03;;;;;;;;;;;-1.50;99.90;;;;;;5089091;28;19998;-48
2022/01/07 05:49:29;;;;;;;;;;;-1.60;99.90;;;;;;5076589;28;19909;-48
2022/01/07 05:51:54;;;;;;;;;;;-1.50;99.90;;;;;;5079770;28;19942;-47
2022/01/07 05:54:20;;;;;;;;;;;-1.60;99.90;;;;;;5095116;28;19908;-49
2022/01/07 05:56:45;;;;;;;;;;;-1.60;99.90;;;;;;5092696;28;20346;-45
2022/01/07 05:59:11;;;;;;;;;;;-1.70;99.90;;;;;;5089646;28;20003;-50
2022/01/07 06:01:36;;;;;;;;;;;-1.80;99.90;;;;;;5090467;28;19920;-51
2022/01/07 06:04:02;;;;;;;;;;;-1.70;99.90;;;;;;5078325;28;19912;-51
2022/01/07 06:06:27;;;;;;;;;;;-1.70;99.90;;;;;;5088240;28;19912;-45
2022/01/07 06:08:53;;;;;;;;;;;-1.70;99.90;;;;;;5081506;28;19940;-46
2022/01/07 06:11:19;;;;;;;;;;;-1.60;99.90;;;;;;5085511;28;20406;-47
2022/01/07 06:13:44;;;;;;;;;;;-1.60;99.90;;;;;;5075662;28;19913;-46
2022/01/07 06:16:10;;;;;;;;;;;-1.70;99.90;;;;;;5076595;28;19990;-47
2022/01/07 06:18:39;;;;;;;;;;;-1.60;99.90;;;;;;5057680;28;20359;-49
2022/01/07 06:21:05;;;;;;;;;;;-1.80;99.90;;;;;;5075568;28;19912;-45
2022/01/07 06:23:30;;;;;;;;;;;-1.70;99.90;;;;;;5075601;28;19912;-46
2022/01/07 06:25:56;;;;;;;;;;;-1.70;99.90;;;;;;5075523;28;20010;-46
2022/01/07 06:28:22;;;;;;;;;;;-1.70;99.90;;;;;;5075344;28;19912;-46
2022/01/07 06:30:47;;;;;;;;;;;-1.60;99.90;;;;;;5075316;28;19920;-46
2022/01/07 06:33:13;;;;;;;;;;;-1.60;99.90;;;;;;5075480;28;19908;-49
2022/01/07 06:35:38;;;;;;;;;;;-1.60;99.90;;;;;;5075463;28;19908;-48
2022/01/07 06:38:05;;;;;;;;;;;-1.50;99.90;;;;;;5075282;28;20362;-47
2022/01/07 06:40:30;;;;;;;;;;;-1.60;99.90;;;;;;5075045;28;19966;-48
2022/01/07 06:42:56;;;;;;;;;;;-1.70;99.90;;;;;;5075055;28;19916;-47
2022/01/07 06:45:21;;;;;;;;;;;-1.80;99.90;;;;;;5075009;28;19959;-45
2022/01/07 06:47:47;;;;;;;;;;;-1.80;99.90;;;;;;5074706;28;19951;-45
2022/01/07 06:50:12;;;;;;;;;;;-1.90;99.90;;;;;;5074412;28;20016;-48
2022/01/07 06:52:38;;;;;;;;;;;-1.80;99.90;;;;;;5074943;28;19916;-47
2022/01/07 06:55:04;;;;;;;;;;;-1.70;99.90;;;;;;5074784;28;20282;-47
2022/01/07 06:57:30;;;;;;;;;;;-1.60;99.90;;;;;;5075006;28;19908;-45
2022/01/07 06:59:55;;;;;;;;;;;-1.70;99.90;;;;;;5074589;28;20313;-46
2022/01/07 07:02:21;;;;;;;;;;;-1.60;99.90;;;;;;5075020;28;19919;-48
2022/01/07 07:04:47;;;;;;;;;;;-1.50;99.90;;;;;;5075041;28;19916;-46
2022/01/07 07:07:13;;;;;;;;;;;-1.40;99.90;;;;;;5074888;28;19916;-50
2022/01/07 07:09:38;;;;;;;;;;;-1.50;99.90;;;;;;5074060;28;19908;-47
2022/01/07 07:12:04;;;;;;;;;;;-1.40;99.90;;;;;;5075032;28;20263;-45
2022/01/07 07:14:30;;;;;;;;;;;-1.20;99.90;;;;;;5074572;28;19908;-49
2022/01/07 07:16:55;;;;;;;;;;;-1.30;99.90;;;;;;5074696;28;19932;-45
2022/01/07 07:19:22;;;;;;;;;;;-1.20;99.90;;;;;;5074285;28;19932;-45
2022/01/07 07:21:48;;;;;;;;;;;-1.20;99.90;;;;;;5074450;28;19951;-45
2022/01/07 07:24:13;;;;;;;;;;;-1.20;99.90;;;;;;5074093;28;19989;-47
2022/01/07 07:26:39;;;;;;;;;;;-1.00;99.90;;;;;;5073593;28;20416;-45
2022/01/07 07:29:04;;;;;;;;;;;-1.10;99.90;;;;;;5074115;28;19948;-49
2022/01/07 07:31:31;;;;;;;;;;;-1.10;99.90;;;;;;5073936;28;20023;-47
2022/01/07 07:34:18;;;;;;;;;;;-1.20;99.90;;;;;;5074391;28;19912;-46
2022/01/07 07:36:44;;;;;;;;;;;-1.10;99.90;;;;;;5073725;28;19909;-45
2022/01/07 07:39:11;;;;;;;;;;;-1.00;99.90;;;;;;5073765;28;20273;-47
2022/01/07 07:41:37;;;;;;;;;;;-0.90;99.90;;;;;;5073960;28;19916;-48
2022/01/07 07:44:04;;;;;;;;;;;-0.80;99.90;;;;;;5074222;28;19916;-45
2022/01/07 07:46:32;;;;;;;;;;;-0.80;99.90;;;;;;5074069;28;19912;-45
2022/01/07 07:49:00;;;;;;;;;;;-0.60;99.90;;;;;;5074055;28;19936;-45
2022/01/07 07:51:26;;;;;;;;;;;-0.50;99.90;;;;;;5074179;28;19991;-47
2022/01/07 07:53:51;;;;;;;;;;;-0.50;99.90;;;;;;5074292;28;19947;-48
2022/01/07 07:56:17;;;;;;;;;;;-0.40;99.90;;;;;;5074000;28;20021;-47
2022/01/07 07:58:43;;;;;;;;;;;-0.50;99.90;;;;;;5074103;28;19912;-49
2022/01/07 08:01:09;;;;;;;;;;;-0.40;99.90;;;;;;5073766;28;20243;-46
2022/01/07 08:03:34;;;;;;;;;;;-0.20;99.90;;;;;;5073833;28;19916;-45
2022/01/07 08:06:00;;;;;;;;;;;-0.10;99.90;;;;;;5073437;28;19908;-47
2022/01/07 08:08:25;;;;;;;;;;;0.00;99.90;;;;;;5073696;28;19970;-45
2022/01/07 08:10:55;;;;;;;;;;;0.00;99.90;;;;;;5055798;28;19909;-46
2022/01/07 08:16:19;;;;;;;;;;;-0.20;99.90;;;;;;5039660;28;20331;-45
2022/01/07 08:18:47;;;;;;;;;;;-0.10;99.90;;;;;;5073509;28;19908;-49
2022/01/07 08:21:13;;;;;;;;;;;0.00;99.90;;;;;;5072273;28;19919;-50
2022/01/07 08:23:39;;;;;;;;;;;-0.20;99.90;;;;;;5073618;28;19913;-48
2022/01/07 08:26:07;;;;;;;;;;;-0.10;99.90;;;;;;5072888;28;19915;-48
2022/01/07 08:28:39;;;;;;;;;;;0.00;99.90;;;;;;5073095;28;20278;-46
2022/01/07 08:36:15;;;;;;;;;;;0.20;99.90;;;;;;5073493;28;19920;-46
2022/01/07 08:38:41;;;;;;;;;;;0.30;99.90;;;;;;5073034;28;19908;-46
2022/01/07 08:41:06;;;;;;;;;;;0.40;99.90;;;;;;5073100;28;20050;-46
2022/01/07 08:43:32;;;;;;;;;;;0.50;99.90;;;;;;5073452;28;20057;-48
2022/01/07 08:45:58;;;;;;;;;;;0.60;99.90;;;;;;5073040;28;19909;-47
2022/01/07 08:48:26;;;;;;;;;;;0.70;99.90;;;;;;5073076;28;19915;-47
2022/01/07 08:50:51;;;;;;;;;;;0.60;99.90;;;;;;5073304;28;20281;-46
2022/01/07 08:53:17;;;;;;;;;;;0.60;99.90;;;;;;5073050;28;19909;-45
2022/01/07 08:55:42;;;;;;;;;;;0.80;99.90;;;;;;5072915;28;19915;-46
2022/01/07 08:58:08;;;;;;;;;;;1.00;99.90;;;;;;5073158;28;19912;-47
2022/01/07 09:00:33;;;;;;;;;;;1.00;99.90;;;;;;5072818;28;19935;-47
2022/01/07 09:03:00;;;;;;;;;;;1.20;99.90;;;;;;5072764;28;19920;-46
2022/01/07 09:05:26;;;;;;;;;;;1.20;99.90;;;;;;5072467;28;19913;-46
2022/01/07 09:07:51;;;;;;;;;;;1.40;99.90;;;;;;5072597;28;19961;-45
2022/01/07 09:10:17;;;;;;;;;;;1.60;99.90;;;;;;5072678;28;20022;-45
2022/01/07 09:12:42;;;;;;;;;;;1.70;99.90;;;;;;5073084;28;19909;-45
2022/01/07 09:15:08;;;;;;;;;;;1.90;99.90;;;;;;5072671;28;19934;-52
2022/01/07 09:17:35;;;;;;;;;;;2.00;99.90;;;;;;5054982;28;20278;-45
2022/01/07 09:20:01;;;;;;;;;;;1.80;99.90;;;;;;5072913;28;19912;-46
2022/01/07 09:22:27;;;;;;;;;;;1.90;99.90;;;;;;5072762;28;19912;-45
2022/01/07 09:24:52;;;;;;;;;;;1.90;99.90;;;;;;5072228;28;20263;-45
2022/01/07 09:27:18;;;;;;;;;;;2.00;99.90;;;;;;5072236;28;19915;-45
2022/01/07 09:29:43;;;;;;;;;;;2.00;99.90;;;;;;5072540;28;19908;-46
2022/01/07 09:32:09;;;;;;;;;;;2.10;99.90;;;;;;5073731;28;19913;-44
2022/01/07 09:34:36;;;;;;;;;;;2.30;99.90;;;;;;5058355;28;19954;-47
2022/01/07 09:37:02;;;;;;;;;;;2.50;99.90;;;;;;5076004;28;19913;-48
2022/01/07 09:39:28;;;;;;;;;;;2.30;99.90;;;;;;5075871;28;20406;-50
2022/01/07 09:41:53;;;;;;;;;;;2.10;99.90;;;;;;5075870;28;20011;-45
2022/01/07 09:44:19;;;;;;;;;;;2.30;99.90;;;;;;5075752;28;20259;-47
2022/01/07 09:46:44;;;;;;;;;;;2.20;99.90;;;;;;5075519;28;20381;-49
2022/01/07 09:49:10;;;;;;;;;;;2.60;99.90;;;;;;5075977;28;19909;-47
2022/01/07 09:51:39;;;;;;;;;;;2.70;99.90;;;;;;5076020;28;19919;-47
2022/01/07 09:54:06;;;;;;;;;;;2.70;99.90;;;;;;5075603;28;19908;-46
2022/01/07 09:56:31;;;;;;;;;;;2.50;99.90;;;;;;5075962;28;20356;-48
2022/01/07 09:58:56;;;;;;;;;;;2.80;99.90;;;;;;5075676;28;19915;-46
2022/01/07 10:01:25;;;;;;;;;;;2.90;99.90;;;;;;5075495;28;20008;-45
2022/01/07 10:03:51;;;;;;;;;;;2.90;99.90;;;;;;5075339;28;19920;-46
2022/01/07 10:06:23;;;;;;;;;;;3.20;99.90;;;;;;5075156;28;20263;-47
2022/01/07 10:09:10;;;;;;;;;;;3.30;99.90;;;;;;5075568;28;19916;-47
2022/01/07 10:11:36;;;;;;;;;;;3.20;99.90;;;;;;5075366;28;20050;-45
2022/01/07 10:14:22;;;;;;;;;;;3.00;99.90;;;;;;5075444;28;20212;-50
2022/01/07 10:16:52;;;;;;;;;;;2.80;99.90;;;;;;5075380;28;19931;-49
2022/01/07 10:19:36;;;;;;;;;;;2.70;99.90;;;;;;5075230;28;20362;-47
2022/01/07 10:22:13;;;;;;;;;;;2.60;99.90;;;;;;5075135;28;19924;-49
2022/01/07 10:24:57;;;;;;;;;;;2.30;99.90;;;;;;5075259;28;19970;-50
2022/01/07 10:27:23;;;;;;;;;;;2.20;99.90;;;;;;5075116;28;19908;-47
2022/01/07 10:29:49;;;;;;;;;;;2.20;99.90;;;;;;5074606;28;20045;-47
2022/01/07 10:32:18;;;;;;;;;;;2.20;99.90;;;;;;5075203;28;19988;-47
2022/01/07 10:35:02;;;;;;;;;;;2.10;99.90;;;;;;5057019;28;19912;-46
2022/01/07 10:37:28;;;;;;;;;;;2.00;99.90;;;;;;5075212;28;19908;-46
2022/01/07 10:39:53;;;;;;;;;;;2.10;99.90;;;;;;5075009;28;20275;-47
2022/01/07 10:42:22;;;;;;;;;;;2.10;99.90;;;;;;5075129;28;19935;-45
2022/01/07 10:45:01;;;;;;;;;;;2.30;99.90;;;;;;5073464;28;19908;-45
2022/01/07 10:47:28;;;;;;;;;;;2.40;99.90;;;;;;5074531;28;19908;-46
2022/01/07 10:50:12;;;;;;;;;;;2.50;99.90;;;;;;5074455;28;20220;-43
2022/01/07 10:52:38;;;;;;;;;;;2.70;99.90;;;;;;5057003;28;19909;-47
2022/01/07 10:55:22;;;;;;;;;;;2.90;99.90;;;;;;5074812;28;19920;-45
2022/01/07 10:57:48;;;;;;;;;;;3.10;99.90;;;;;;5075019;28;19908;-44
2022/01/07 11:00:15;;;;;;;;;;;3.40;99.90;;;;;;5074236;28;19952;-47
2022/01/07 11:02:41;;;;;;;;;;;3.80;99.90;;;;;;5074655;28;20321;-47
2022/01/07 11:05:07;;;;;;;;;;;4.00;99.90;;;;;;5074053;28;19916;-46
2022/01/07 11:07:33;;;;;;;;;;;4.00;99.90;;;;;;5074123;28;20370;-48
2022/01/07 11:09:59;;;;;;;;;;;3.90;99.90;;;;;;5074502;28;19909;-48
2022/01/07 11:12:25;;;;;;;;;;;3.90;99.90;;;;;;5074236;28;19996;-47
2022/01/07 11:14:51;;;;;;;;;;;4.00;99.90;;;;;;5074369;28;19940;-46
2022/01/07 11:17:21;;;;;;;;;;;4.00;99.90;;;;;;5073944;28;20259;-49
2022/01/07 11:20:14;;;;;;;;;;;4.10;99.90;;;;;;5073899;28;19967;-48
2022/01/07 11:22:42;;;;;;;;;;;4.30;99.90;;;;;;5071619;28;19912;-48
2022/01/07 11:25:10;;;;;;;;;;;4.40;99.90;;;;;;5074118;28;20354;-47
2022/01/07 11:27:48;;;;;;;;;;;4.60;99.90;;;;;;5073894;28;20369;-47
2022/01/07 11:30:15;;;;;;;;;;;4.60;99.90;;;;;;5073981;28;19920;-47
2022/01/07 11:32:41;;;;;;;;;;;4.60;99.90;;;;;;5074201;28;19965;-49
2022/01/07 11:35:19;;;;;;;;;;;4.60;99.90;;;;;;5074242;28;19995;-46
2022/01/07 11:37:44;;;;;;;;;;;4.20;99.90;;;;;;5073931;28;19912;-45
2022/01/07 11:40:26;;;;;;;;;;;4.50;99.90;;;;;;5073836;28;20274;-46
2022/01/07 11:42:52;;;;;;;;;;;4.30;99.90;;;;;;5073904;28;20270;-54
2022/01/07 11:45:26;;;;;;;;;;;4.20;99.90;;;;;;5073277;28;19909;-46
2022/01/07 11:47:52;;;;;;;;;;;3.90;99.90;;;;;;5073365;28;19923;-47
2022/01/07 11:50:18;;;;;;;;;;;3.90;99.90;;;;;;5073750;28;19912;-48
2022/01/07 11:52:55;;;;;;;;;;;3.60;99.90;;;;;;5073924;28;19913;-47
2022/01/07 11:55:23;;;;;;;;;;;3.70;99.90;;;;;;5073059;28;19912;-44
2022/01/07 11:57:51;;;;;;;;;;;3.80;99.90;;;;;;5073521;28;20370;-47
2022/01/07 12:00:35;;;;;;;;;;;3.90;99.90;;;;;;5073151;28;19912;-48
2022/01/07 12:03:01;;;;;;;;;;;4.20;99.90;;;;;;5073616;28;19912;-46
2022/01/07 12:05:32;;;;;;;;;;;4.40;99.90;;;;;;5073701;28;20350;-46
2022/01/07 12:07:58;;;;;;;;;;;4.50;99.90;;;;;;5073661;28;19909;-50
2022/01/07 12:10:24;;;;;;;;;;;4.50;99.90;;;;;;5073433;28;19923;-46
2022/01/07 12:12:57;;;;;;;;;;;4.40;99.90;;;;;;5072987;28;19908;-49
2022/01/07 12:15:23;;;;;;;;;;;4.70;99.90;;;;;;5073290;28;19909;-46
2022/01/07 12:17:48;;;;;;;;;;;4.80;99.90;;;;;;5073205;28;19909;-50
2022/01/07 12:20:32;;;;;;;;;;;4.60;99.90;;;;;;5072896;28;19916;-48
2022/01/07 12:22:58;;;;;;;;;;;4.20;99.90;;;;;;5073230;28;19962;-47
2022/01/07 12:25:24;;;;;;;;;;;3.70;99.90;;;;;;5055034;28;19909;-45
2022/01/07 12:27:58;;;;;;;;;;;3.60;99.90;;;;;;5054763;28;19958;-47
2022/01/07 12:30:23;;;;;;;;;;;3.70;99.90;;;;;;5073264;28;19961;-49
2022/01/07 12:32:49;;;;;;;;;;;3.60;99.90;;;;;;5073305;28;19959;-47
2022/01/07 12:35:14;;;;;;;;;;;3.50;99.90;;;;;;5073128;28;19916;-45
2022/01/07 12:37:40;;;;;;;;;;;3.60;99.90;;;;;;5072673;28;19991;-46
2022/01/07 12:40:08;;;;;;;;;;;3.80;99.90;;;;;;5072633;28;19913;-45
2022/01/07 12:42:38;;;;;;;;;;;3.80;99.90;;;;;;5073193;28;19957;-45
2022/01/07 12:45:04;;;;;;;;;;;3.90;99.90;;;;;;5073187;28;19909;-44
2022/01/07 12:47:31;;;;;;;;;;;3.80;99.90;;;;;;5073301;28;20367;-47
2022/01/07 12:49:57;;;;;;;;;;;3.40;99.90;;;;;;5072837;28;19908;-49
2022/01/07 12:52:45;;;;;;;;;;;3.50;99.90;;;;;;5072680;28;20003;-45
2022/01/07 12:55:16;;;;;;;;;;;3.40;99.90;;;;;;5072751;28;19908;-49
2022/01/07 12:57:46;;;;;;;;;;;3.50;99.90;;;;;;5072495;28;19915;-45
2022/01/07 13:00:28;;;;;;;;;;;3.70;99.90;;;;;;5072763;28;19912;-46
2022/01/07 13:02:58;;;;;;;;;;;3.70;99.90;;;;;;5072593;28;19973;-49
2022/01/07 13:05:28;;;;;;;;;;;3.80;99.90;;;;;;5072702;28;19915;-47
2022/01/07 13:07:58;;;;;;;;;;;3.60;99.90;;;;;;5075282;28;19919;-51
2022/01/07 13:10:25;;;;;;;;;;;3.40;99.90;;;;;;5058862;28;20329;-49
2022/01/07 13:12:52;;;;;;;;;;;3.40;99.90;;;;;;5076294;28;19909;-46
2022/01/07 13:15:32;;;;;;;;;;;3.50;99.90;;;;;;5076434;28;19926;-48
2022/01/07 13:18:12;;;;;;;;;;;3.70;99.90;;;;;;5075885;28;19934;-45
2022/01/07 13:20:37;;;;;;;;;;;3.80;99.90;;;;;;5076438;28;19912;-47
2022/01/07 13:23:03;;;;;;;;;;;3.80;99.90;;;;;;5076721;28;20320;-47
2022/01/07 13:25:28;;;;;;;;;;;3.80;99.90;;;;;;5076573;28;19908;-45
2022/01/07 13:27:54;;;;;;;;;;;3.90;99.90;;;;;;5076447;28;20328;-46
2022/01/07 13:30:32;;;;;;;;;;;3.70;99.90;;;;;;5076150;28;19927;-49
2022/01/07 13:33:24;;;;;;;;;;;3.60;99.90;;;;;;5075969;28;19909;-48
2022/01/07 13:35:53;;;;;;;;;;;3.60;99.90;;;;;;5073025;28;20007;-45
2022/01/07 13:38:19;;;;;;;;;;;3.70;99.90;;;;;;5076060;28;19944;-45
2022/01/07 13:40:44;;;;;;;;;;;3.90;99.90;;;;;;5075598;28;19966;-48
2022/01/07 13:43:14;;;;;;;;;;;4.00;99.90;;;;;;5075754;28;19920;-47
2022/01/07 13:45:40;;;;;;;;;;;4.00;99.90;;;;;;5075801;28;19977;-46
2022/01/07 13:48:07;;;;;;;;;;;4.20;99.90;;;;;;5076036;28;20389;-50
2022/01/07 13:50:33;;;;;;;;;;;4.20;99.90;;;;;;5076172;28;19908;-47
2022/01/07 13:53:15;;;;;;;;;;;4.10;99.90;;;;;;5057965;28;19915;-46
2022/01/07 13:55:40;;;;;;;;;;;4.10;99.90;;;;;;5075774;28;19908;-48
2022/01/07 13:58:16;;;;;;;;;;;4.00;99.90;;;;;;5075494;28;19915;-47
2022/01/07 14:00:43;;;;;;;;;;;3.60;99.90;;;;;;5075345;28;19935;-50
2022/01/07 14:03:09;;;;;;;;;;;3.70;99.90;;;;;;5075726;28;19913;-51
2022/01/07 14:05:35;;;;;;;;;;;3.70;99.90;;;;;;5075334;28;20010;-46
2022/01/07 14:08:06;;;;;;;;;;;3.90;99.90;;;;;;5075490;28;19940;-45
2022/01/07 14:10:34;;;;;;;;;;;4.00;99.90;;;;;;5075554;28;19908;-45
2022/01/07 14:13:01;;;;;;;;;;;3.90;99.90;;;;;;5075615;28;19962;-51
2022/01/07 14:15:31;;;;;;;;;;;3.90;99.90;;;;;;5075413;28;20392;-46
2022/01/07 14:18:04;;;;;;;;;;;3.90;99.90;;;;;;5075309;28;19909;-46
2022/01/07 14:20:37;;;;;;;;;;;3.90;99.90;;;;;;5075872;28;19912;-46
2022/01/07 14:23:03;;;;;;;;;;;3.80;99.90;;;;;;5057320;28;19927;-46
2022/01/07 14:25:28;;;;;;;;;;;3.50;99.90;;;;;;5075349;28;19995;-46
2022/01/07 14:27:54;;;;;;;;;;;3.40;99.90;;;;;;5075242;28;20404;-48
2022/01/07 14:30:20;;;;;;;;;;;3.40;99.90;;;;;;5075175;28;19974;-45
2022/01/07 14:32:45;;;;;;;;;;;3.50;99.90;;;;;;5075367;28;19932;-47